ニース/コート・ダジュール の空港の天気 - METARとTAF

コート・ダジュール空港(ニース) ( LFMN / NCE ) - フランス ニース
飛行場実況気象(Metar)
観測時間08/16 08:30 CEST (08/16 06:30 UTC)
風向・風速北 4m/s
視程10km以上
天気現象
少しの雲 雲底高度 3050m
気温25℃
湿度54%
気圧1016hPa
METARLFMN 160630Z 35008KT 9999 FEW100 25/15 Q1016 NOSIG
過去の天気等 Google飛行場航空写真 Wunderground天気予報

過去48時間のMETAR

飛行場予報(TAF)
発表時間: 8/16 04:00 CEST (8/16 02:00 UTC)
予報対象時間: 16日5時 CEST ~ 17日11時 CEST
風向・風速北北西 5m/s
視程10km以上
なし
16日11時 CEST ~ 16日13時 CEST に徐々に
風向・風速南 4m/s
少しの雲 雲底高度 1520m
16日22時 CEST ~ 16日24時 CEST に徐々に
風向・風速北北西 5m/s
視程10km以上
なし
TAF LFMN 160200Z 1603/1709 33010KT CAVOK
BECMG 1609/1611 18008KT FEW050
BECMG 1620/1622 33010KT CAVOK